createdAt,value
2022-07-30T00:00:31.381Z,19.96
2022-07-30T00:02:59.599Z,19.92
2022-07-30T00:05:27.954Z,19.92
2022-07-30T00:07:57.632Z,19.89
2022-07-30T00:10:26.047Z,19.87
2022-07-30T00:12:54.318Z,19.86
2022-07-30T00:15:22.614Z,19.81
2022-07-30T00:17:50.842Z,19.79
2022-07-30T00:20:19.563Z,19.80
2022-07-30T00:22:48.158Z,19.80
2022-07-30T00:25:19.721Z,19.81
2022-07-30T00:27:47.978Z,19.78
2022-07-30T00:30:16.638Z,19.77
2022-07-30T00:32:44.944Z,19.79
2022-07-30T00:35:13.830Z,19.76
2022-07-30T00:37:42.211Z,19.79
2022-07-30T00:40:11.562Z,19.79
2022-07-30T00:42:42.896Z,19.78
2022-07-30T00:45:12.875Z,19.77
2022-07-30T00:47:42.024Z,19.77
2022-07-30T00:50:12.417Z,19.72
2022-07-30T00:52:42.041Z,19.73
2022-07-30T00:55:12.908Z,19.70
2022-07-30T00:57:43.531Z,19.65
2022-07-30T01:00:15.389Z,19.65
2022-07-30T01:02:43.506Z,19.66
2022-07-30T01:05:12.211Z,19.65
2022-07-30T01:07:40.658Z,19.66
2022-07-30T01:10:11.169Z,19.64
2022-07-30T01:12:40.231Z,19.69
2022-07-30T01:15:11.827Z,19.69
2022-07-30T01:17:40.810Z,19.65
2022-07-30T01:20:14.528Z,19.62
2022-07-30T01:22:53.333Z,19.64
2022-07-30T01:25:31.338Z,19.66
2022-07-30T01:28:05.509Z,19.66
2022-07-30T01:30:37.691Z,19.66
2022-07-30T01:33:07.454Z,19.62
2022-07-30T01:35:36.985Z,19.54
2022-07-30T01:38:07.967Z,19.51
2022-07-30T01:40:37.546Z,19.48
2022-07-30T01:43:08.874Z,19.48
2022-07-30T01:45:41.999Z,19.44
2022-07-30T01:48:14.800Z,19.44
2022-07-30T01:50:47.701Z,19.39
2022-07-30T01:53:18.128Z,19.40
2022-07-30T01:55:47.919Z,19.39
2022-07-30T01:58:20.434Z,19.40
2022-07-30T02:00:51.042Z,19.38
2022-07-30T02:03:19.325Z,19.38
2022-07-30T02:05:53.967Z,19.40
2022-07-30T02:08:28.964Z,19.38
2022-07-30T02:11:05.872Z,19.37
2022-07-30T02:13:43.362Z,19.33
2022-07-30T02:16:18.206Z,19.34
2022-07-30T02:18:58.377Z,19.31
2022-07-30T02:21:34.628Z,19.31
2022-07-30T02:24:08.759Z,19.31
2022-07-30T02:26:39.668Z,19.31
2022-07-30T02:29:11.599Z,19.27
2022-07-30T02:31:42.145Z,19.26
2022-07-30T02:34:12.110Z,19.27
2022-07-30T02:36:42.818Z,19.26
2022-07-30T02:39:11.621Z,19.26
2022-07-30T02:41:44.564Z,19.22
2022-07-30T02:44:19.611Z,19.18
2022-07-30T02:46:49.456Z,19.15
2022-07-30T02:49:21.767Z,19.13
2022-07-30T02:51:51.874Z,19.17
2022-07-30T02:54:22.616Z,19.19
2022-07-30T02:56:53.176Z,19.17
2022-07-30T02:59:26.244Z,19.15
2022-07-30T03:01:56.157Z,19.15
2022-07-30T03:04:25.316Z,19.13
2022-07-30T03:06:54.677Z,19.11
2022-07-30T03:09:23.425Z,19.12
2022-07-30T03:11:54.153Z,19.11
2022-07-30T03:14:24.481Z,19.10
2022-07-30T03:16:58.470Z,19.09
2022-07-30T03:19:30.944Z,19.07
2022-07-30T03:22:02.465Z,19.07
2022-07-30T03:24:32.551Z,19.04
2022-07-30T03:27:04.070Z,19.02
2022-07-30T03:29:36.087Z,19.00
2022-07-30T03:32:06.206Z,19.02
2022-07-30T03:34:36.054Z,19.01
2022-07-30T03:37:06.600Z,18.99
2022-07-30T03:39:36.544Z,19.01
2022-07-30T03:42:07.958Z,18.95
2022-07-30T03:44:38.663Z,19.01
2022-07-30T03:47:08.130Z,19.02
2022-07-30T03:49:36.392Z,19.02
2022-07-30T03:52:05.574Z,19.01
2022-07-30T03:54:34.556Z,19.08
2022-07-30T03:57:03.698Z,19.10
2022-07-30T03:59:32.563Z,19.11
2022-07-30T04:02:06.013Z,19.14
2022-07-30T04:04:35.702Z,19.14
2022-07-30T04:07:04.180Z,19.07
2022-07-30T04:09:32.618Z,19.09
2022-07-30T04:12:00.776Z,19.07
2022-07-30T04:14:28.969Z,19.08
2022-07-30T04:17:05.098Z,19.04
2022-07-30T04:19:39.719Z,19.05
2022-07-30T04:22:10.158Z,19.02
2022-07-30T04:24:41.431Z,19.00
2022-07-30T04:27:10.411Z,19.00
2022-07-30T04:29:38.810Z,18.95
2022-07-30T04:32:09.772Z,18.94
2022-07-30T04:34:38.398Z,18.95
2022-07-30T04:37:06.780Z,18.93
2022-07-30T04:39:35.145Z,18.93
2022-07-30T04:42:03.514Z,18.93
2022-07-30T04:44:31.793Z,18.93
2022-07-30T04:47:00.179Z,18.92
2022-07-30T04:49:31.357Z,18.92
2022-07-30T04:52:00.167Z,18.92
2022-07-30T04:54:36.333Z,18.95
2022-07-30T04:57:06.141Z,18.96
2022-07-30T04:59:37.362Z,18.95
2022-07-30T05:02:08.023Z,18.94
2022-07-30T05:04:38.996Z,18.94
2022-07-30T05:07:08.379Z,18.96
2022-07-30T05:09:37.914Z,18.98
2022-07-30T05:12:11.183Z,18.97
2022-07-30T05:14:39.449Z,18.98
2022-07-30T05:17:07.767Z,18.96
2022-07-30T05:19:37.315Z,19.02
2022-07-30T05:22:06.789Z,19.03
2022-07-30T05:24:35.146Z,19.01
2022-07-30T05:27:03.811Z,18.99
2022-07-30T05:29:32.202Z,18.99
2022-07-30T05:32:03.276Z,19.01
2022-07-30T05:34:32.050Z,19.02
2022-07-30T05:37:02.090Z,19.04
2022-07-30T05:39:30.771Z,19.02
2022-07-30T05:41:59.060Z,19.05
2022-07-30T05:44:27.301Z,19.07
2022-07-30T05:46:55.560Z,19.09
2022-07-30T05:49:23.956Z,19.10
2022-07-30T05:51:52.309Z,19.09
2022-07-30T05:54:21.843Z,19.14
2022-07-30T05:56:53.161Z,19.19
2022-07-30T05:59:21.967Z,19.18
2022-07-30T06:01:50.234Z,19.17
2022-07-30T06:04:18.415Z,19.19
2022-07-30T06:06:46.610Z,19.19
2022-07-30T06:09:15.137Z,19.19
2022-07-30T06:11:44.862Z,19.15
2022-07-30T06:14:13.107Z,19.12
2022-07-30T06:16:41.860Z,19.15
2022-07-30T06:19:10.077Z,19.15
2022-07-30T06:22:01.809Z,19.15
2022-07-30T06:24:35.428Z,19.12
2022-07-30T06:27:05.776Z,19.11
2022-07-30T06:29:33.984Z,19.11
2022-07-30T06:32:02.187Z,19.14
2022-07-30T06:34:30.491Z,19.14
2022-07-30T06:36:58.943Z,19.15
2022-07-30T06:39:56.368Z,19.15
2022-07-30T06:42:17.520Z,19.15
2022-07-30T06:44:45.719Z,19.13
2022-07-30T06:47:13.875Z,19.14
2022-07-30T06:49:42.039Z,19.10
2022-07-30T06:52:10.223Z,19.05
2022-07-30T06:54:38.469Z,19.07
2022-07-30T06:57:06.667Z,19.07
2022-07-30T06:59:56.568Z,19.07
2022-07-30T07:02:25.963Z,19.03
2022-07-30T07:04:54.251Z,19.04
2022-07-30T07:07:40.361Z,19.00
2022-07-30T07:10:10.189Z,19.06
2022-07-30T07:12:38.519Z,19.05
2022-07-30T07:15:10.082Z,19.09
2022-07-30T07:17:38.443Z,19.06
2022-07-30T07:20:07.500Z,19.10
2022-07-30T07:22:35.688Z,19.08
2022-07-30T07:25:04.064Z,19.06
2022-07-30T07:27:32.417Z,19.05
2022-07-30T07:30:01.718Z,19.06
2022-07-30T07:32:35.330Z,19.12
2022-07-30T07:35:03.895Z,19.11
2022-07-30T07:37:32.205Z,19.06
2022-07-30T07:40:00.469Z,19.03
2022-07-30T07:42:28.730Z,19.05
2022-07-30T07:44:57.004Z,19.03
2022-07-30T07:47:25.297Z,19.02
2022-07-30T07:49:57.651Z,19.06
2022-07-30T07:52:25.769Z,19.06
2022-07-30T07:54:53.897Z,19.04
2022-07-30T07:57:22.163Z,19.06
2022-07-30T07:59:51.796Z,19.08
2022-07-30T08:02:20.009Z,19.11
2022-07-30T08:04:48.169Z,19.09
2022-07-30T08:07:17.840Z,19.11
2022-07-30T08:09:46.042Z,19.13
2022-07-30T08:12:14.266Z,19.19
2022-07-30T08:14:42.533Z,19.18
2022-07-30T08:17:10.922Z,19.15
2022-07-30T08:19:39.115Z,19.13
2022-07-30T08:22:07.407Z,19.15
2022-07-30T08:24:36.915Z,19.13
2022-07-30T08:27:05.541Z,19.12
2022-07-30T08:29:34.073Z,19.08
2022-07-30T08:32:02.807Z,19.13
2022-07-30T08:34:31.139Z,19.15
2022-07-30T08:36:59.451Z,19.20
2022-07-30T08:39:27.629Z,19.14
2022-07-30T08:41:58.856Z,19.12
2022-07-30T08:44:28.611Z,19.13
2022-07-30T08:46:58.577Z,19.17
2022-07-30T08:49:27.660Z,19.19
2022-07-30T08:51:56.503Z,19.25
2022-07-30T08:54:24.924Z,19.29
2022-07-30T08:56:53.484Z,19.30
2022-07-30T08:59:25.315Z,19.32
2022-07-30T09:02:13.702Z,19.34
2022-07-30T09:04:42.120Z,19.35
2022-07-30T09:07:10.256Z,19.38
2022-07-30T09:09:38.429Z,19.46
2022-07-30T09:12:46.506Z,19.50
2022-07-30T09:15:18.396Z,19.52
2022-07-30T09:17:52.838Z,19.57
2022-07-30T09:20:23.433Z,19.65
2022-07-30T09:22:53.157Z,19.69
2022-07-30T09:25:39.286Z,19.72
2022-07-30T09:28:16.383Z,19.77
2022-07-30T09:30:49.526Z,19.80
2022-07-30T09:33:33.385Z,19.83
2022-07-30T09:36:02.369Z,19.87
2022-07-30T09:38:32.130Z,19.91
2022-07-30T09:41:07.991Z,19.93
2022-07-30T09:43:47.231Z,19.93
2022-07-30T09:46:17.721Z,19.94
2022-07-30T09:48:47.002Z,19.87
2022-07-30T09:51:15.969Z,19.85
2022-07-30T09:53:59.218Z,19.85
2022-07-30T09:56:30.343Z,19.87
2022-07-30T09:58:58.594Z,19.94
2022-07-30T10:01:47.184Z,19.98
2022-07-30T10:04:26.181Z,20.03
2022-07-30T10:06:55.390Z,20.12
2022-07-30T10:09:30.822Z,20.16
2022-07-30T10:12:02.690Z,20.20
2022-07-30T10:14:34.869Z,20.21
2022-07-30T10:17:13.289Z,20.22
2022-07-30T10:19:42.018Z,20.26
2022-07-30T10:22:11.679Z,20.34
2022-07-30T10:24:41.648Z,20.42
2022-07-30T10:27:11.168Z,20.46
2022-07-30T10:29:42.739Z,20.60
2022-07-30T10:32:12.688Z,20.73
2022-07-30T10:34:42.452Z,20.77
2022-07-30T10:37:15.798Z,20.87
2022-07-30T10:39:51.986Z,20.91
2022-07-30T10:42:37.415Z,20.92
2022-07-30T10:45:19.732Z,20.96
2022-07-30T10:47:51.383Z,21.01
2022-07-30T10:50:22.821Z,21.04
2022-07-30T10:52:52.396Z,20.96
2022-07-30T10:55:32.874Z,21.04
2022-07-30T10:58:08.512Z,21.01
2022-07-30T11:00:58.680Z,21.03
2022-07-30T11:03:31.397Z,21.02
2022-07-30T11:06:29.461Z,21.09
2022-07-30T11:08:58.237Z,21.21
2022-07-30T11:12:01.098Z,21.33
2022-07-30T11:15:06.269Z,21.53
2022-07-30T11:18:04.393Z,21.66
2022-07-30T11:20:34.845Z,21.65
2022-07-30T11:23:35.652Z,21.67
2022-07-30T11:26:04.452Z,21.68
2022-07-30T11:28:36.678Z,21.58
2022-07-30T11:31:09.996Z,21.67
2022-07-30T11:33:39.129Z,21.60
2022-07-30T11:36:13.630Z,21.60
2022-07-30T11:39:01.130Z,21.57
2022-07-30T11:41:35.426Z,21.59
2022-07-30T11:44:29.206Z,21.63
2022-07-30T11:46:57.891Z,21.73
2022-07-30T11:49:27.302Z,21.91
2022-07-30T11:51:57.065Z,21.99
2022-07-30T11:54:26.200Z,22.04
2022-07-30T11:57:00.848Z,22.07
2022-07-30T11:59:32.022Z,22.13
2022-07-30T12:02:02.291Z,22.19
2022-07-30T12:04:31.248Z,22.22
2022-07-30T12:07:00.883Z,22.22
2022-07-30T12:09:30.027Z,22.16
2022-07-30T12:11:58.822Z,22.12
2022-07-30T12:14:38.382Z,22.08
2022-07-30T12:17:06.663Z,22.01
2022-07-30T12:19:47.589Z,21.97
2022-07-30T12:22:18.292Z,21.87
2022-07-30T12:24:46.480Z,21.85
2022-07-30T12:27:14.831Z,21.79
2022-07-30T12:29:43.111Z,21.74
2022-07-30T12:32:11.372Z,21.61
2022-07-30T12:34:39.645Z,21.58
2022-07-30T12:37:11.856Z,21.57
2022-07-30T12:39:41.477Z,21.67
2022-07-30T12:42:19.318Z,21.77
2022-07-30T12:44:49.342Z,21.85
2022-07-30T12:47:24.243Z,21.80
2022-07-30T12:49:53.601Z,21.81
2022-07-30T12:52:28.285Z,21.80
2022-07-30T12:55:07.436Z,21.88
2022-07-30T12:57:55.131Z,21.87
2022-07-30T13:00:24.318Z,21.94
2022-07-30T13:02:52.778Z,21.97
2022-07-30T13:05:21.654Z,21.97
2022-07-30T13:07:57.780Z,21.95
2022-07-30T13:10:31.263Z,21.94
2022-07-30T13:13:00.265Z,21.94
2022-07-30T13:15:28.554Z,21.94
2022-07-30T13:17:56.721Z,22.04
2022-07-30T13:20:24.962Z,22.15
2022-07-30T13:22:53.302Z,22.20
2022-07-30T13:25:22.528Z,22.29
2022-07-30T13:27:52.061Z,22.29
2022-07-30T13:30:20.391Z,22.25
2022-07-30T13:32:48.670Z,22.28
2022-07-30T13:35:16.816Z,22.38
2022-07-30T13:37:45.108Z,22.49
2022-07-30T13:40:13.675Z,22.55
2022-07-30T13:42:42.489Z,22.59
2022-07-30T13:45:12.621Z,22.68
2022-07-30T13:47:40.938Z,22.74
2022-07-30T13:50:09.619Z,22.82
2022-07-30T13:52:37.952Z,22.88
2022-07-30T13:55:06.880Z,23.05
2022-07-30T13:57:35.142Z,23.18
2022-07-30T14:00:03.801Z,23.24
2022-07-30T14:02:34.402Z,23.18
2022-07-30T14:05:07.301Z,23.19
2022-07-30T14:07:36.178Z,23.23
2022-07-30T14:10:07.102Z,23.33
2022-07-30T14:12:35.494Z,23.30
2022-07-30T14:15:03.710Z,23.30
2022-07-30T14:17:33.656Z,23.28
2022-07-30T14:20:02.146Z,23.20
2022-07-30T14:22:30.376Z,23.09
2022-07-30T14:25:00.304Z,23.04
2022-07-30T14:27:28.480Z,22.98
2022-07-30T14:29:56.903Z,22.93
2022-07-30T14:32:26.998Z,22.86
2022-07-30T14:34:59.896Z,22.81
2022-07-30T14:37:28.178Z,22.66
2022-07-30T14:39:56.358Z,22.64
2022-07-30T14:42:25.500Z,22.58
2022-07-30T14:44:56.859Z,22.52
2022-07-30T14:47:25.329Z,22.45
2022-07-30T14:49:53.565Z,22.46
2022-07-30T14:52:23.246Z,22.51
2022-07-30T14:54:51.429Z,22.47
2022-07-30T14:57:19.942Z,22.51
2022-07-30T14:59:48.123Z,22.46
2022-07-30T15:02:16.755Z,22.53
2022-07-30T15:04:45.087Z,22.54
2022-07-30T15:07:13.605Z,22.39
2022-07-30T15:09:43.200Z,22.37
2022-07-30T15:12:13.161Z,22.39
2022-07-30T15:14:52.347Z,22.40
2022-07-30T15:17:20.737Z,22.38
2022-07-30T15:19:50.868Z,22.30
2022-07-30T15:22:19.850Z,22.18
2022-07-30T15:24:49.649Z,22.06
2022-07-30T15:27:17.982Z,22.04
2022-07-30T15:29:46.236Z,21.97
2022-07-30T15:32:14.463Z,21.95
2022-07-30T15:34:42.595Z,21.94
2022-07-30T15:37:10.824Z,21.82
2022-07-30T15:39:39.093Z,21.79
2022-07-30T15:42:08.929Z,21.80
2022-07-30T15:44:42.283Z,21.84
2022-07-30T15:47:16.574Z,21.88
2022-07-30T15:49:44.914Z,21.88
2022-07-30T15:52:13.276Z,21.88
2022-07-30T15:54:41.914Z,21.89
2022-07-30T15:57:11.471Z,21.86
2022-07-30T15:59:39.572Z,21.86
2022-07-30T16:02:07.924Z,21.85
2022-07-30T16:04:36.181Z,21.82
2022-07-30T16:07:05.399Z,21.81
2022-07-30T16:09:33.716Z,21.76
2022-07-30T16:12:02.520Z,21.76
2022-07-30T16:14:32.501Z,21.75
2022-07-30T16:17:00.706Z,21.72
2022-07-30T16:19:28.979Z,21.60
2022-07-30T16:21:57.264Z,21.60
2022-07-30T16:24:25.524Z,21.56
2022-07-30T16:26:53.800Z,21.52
2022-07-30T16:29:21.984Z,21.42
2022-07-30T16:31:52.078Z,21.40
2022-07-30T16:34:23.037Z,21.38
2022-07-30T16:36:54.884Z,21.36
2022-07-30T16:39:23.293Z,21.31
2022-07-30T16:41:51.638Z,21.25
2022-07-30T16:44:19.994Z,21.20
2022-07-30T16:46:48.805Z,21.19
2022-07-30T16:49:18.597Z,21.15
2022-07-30T16:51:46.803Z,21.15
2022-07-30T16:54:15.130Z,21.15
2022-07-30T16:56:43.742Z,21.09
2022-07-30T16:59:13.826Z,21.07
2022-07-30T17:01:42.629Z,21.05
2022-07-30T17:04:10.843Z,21.04
2022-07-30T17:06:44.308Z,21.03
2022-07-30T17:09:15.712Z,21.05
2022-07-30T17:11:47.038Z,21.06
2022-07-30T17:14:22.288Z,21.03
2022-07-30T17:16:51.064Z,21.00
2022-07-30T17:19:19.448Z,20.96
2022-07-30T17:21:49.065Z,20.92
2022-07-30T17:24:17.604Z,20.92
2022-07-30T17:26:47.072Z,20.88
2022-07-30T17:29:16.812Z,20.88
2022-07-30T17:31:46.363Z,20.88
2022-07-30T17:34:20.356Z,20.88
2022-07-30T17:36:52.637Z,20.88
2022-07-30T17:40:27.223Z,20.90
2022-07-30T17:42:11.066Z,20.93
2022-07-30T17:44:41.246Z,20.97
2022-07-30T17:47:14.665Z,21.00
2022-07-30T17:49:46.392Z,21.02
2022-07-30T17:52:16.072Z,21.06
2022-07-30T17:54:44.278Z,21.03
2022-07-30T17:57:15.321Z,21.03
2022-07-30T17:59:43.885Z,21.01
2022-07-30T18:02:12.246Z,20.99
2022-07-30T18:04:40.530Z,20.96
2022-07-30T18:07:08.997Z,21.00
2022-07-30T18:09:40.206Z,20.98
2022-07-30T18:12:08.559Z,20.98
2022-07-30T18:14:37.482Z,20.97
2022-07-30T18:17:08.988Z,20.99
2022-07-30T18:19:39.416Z,21.00
2022-07-30T18:22:09.437Z,21.00
2022-07-30T18:24:40.287Z,20.98
2022-07-30T18:27:12.998Z,20.96
2022-07-30T18:29:42.063Z,20.97
2022-07-30T18:32:10.450Z,20.96
2022-07-30T18:34:38.661Z,20.94
2022-07-30T18:37:06.987Z,20.89
2022-07-30T18:39:35.235Z,20.87
2022-07-30T18:42:05.700Z,20.86
2022-07-30T18:44:34.316Z,20.84
2022-07-30T18:47:02.538Z,20.85
2022-07-30T18:49:38.344Z,20.83
2022-07-30T18:52:08.230Z,20.85
2022-07-30T18:54:37.748Z,20.82
2022-07-30T18:57:13.927Z,20.82
2022-07-30T18:59:43.051Z,20.81
2022-07-30T19:02:11.657Z,20.80
2022-07-30T19:04:39.963Z,20.78
2022-07-30T19:07:08.552Z,20.76
2022-07-30T19:09:38.717Z,20.75
2022-07-30T19:12:09.200Z,20.75
2022-07-30T19:14:37.581Z,20.71
2022-07-30T19:17:13.763Z,20.71
2022-07-30T19:19:43.404Z,20.70
2022-07-30T19:22:11.629Z,20.65
2022-07-30T19:24:40.047Z,20.64
2022-07-30T19:27:13.956Z,20.63
2022-07-30T19:29:43.592Z,20.61
2022-07-30T19:32:11.950Z,20.63
2022-07-30T19:34:41.245Z,20.60
2022-07-30T19:37:09.520Z,20.53
2022-07-30T19:39:38.167Z,20.52
2022-07-30T19:42:28.129Z,20.45
2022-07-30T19:44:58.838Z,20.40
2022-07-30T19:47:29.733Z,20.33
2022-07-30T19:50:10.224Z,20.31
2022-07-30T19:52:51.385Z,20.25
2022-07-30T19:55:35.819Z,20.23
2022-07-30T19:58:16.192Z,20.22
2022-07-30T20:00:49.293Z,20.20
2022-07-30T20:03:26.167Z,20.18
2022-07-30T20:06:00.283Z,20.16
2022-07-30T20:08:29.135Z,20.15
2022-07-30T20:10:59.396Z,20.17
2022-07-30T20:13:45.272Z,20.17
2022-07-30T20:16:14.774Z,20.17
2022-07-30T20:18:45.943Z,20.17
2022-07-30T20:21:15.990Z,20.17
2022-07-30T20:23:45.430Z,20.19
2022-07-30T20:26:16.035Z,20.14
2022-07-30T20:28:52.563Z,20.16
2022-07-30T20:31:21.266Z,20.12
2022-07-30T20:33:50.870Z,20.17
2022-07-30T20:36:19.470Z,20.15
2022-07-30T20:38:49.453Z,20.16
2022-07-30T20:41:18.159Z,20.15
2022-07-30T20:43:52.510Z,20.17
2022-07-30T20:46:23.798Z,20.14
2022-07-30T20:48:52.963Z,20.15
2022-07-30T20:51:22.059Z,20.13
2022-07-30T20:54:02.315Z,20.12
2022-07-30T20:56:30.842Z,20.10
2022-07-30T20:59:00.408Z,20.10
2022-07-30T21:01:30.780Z,20.10
2022-07-30T21:03:59.388Z,20.08
2022-07-30T21:06:27.832Z,20.06
2022-07-30T21:08:56.896Z,20.06
2022-07-30T21:11:26.714Z,20.09
2022-07-30T21:13:55.161Z,20.08
2022-07-30T21:16:27.305Z,20.05
2022-07-30T21:18:58.976Z,20.04
2022-07-30T21:21:28.990Z,20.04
2022-07-30T21:24:11.698Z,20.06
2022-07-30T21:26:41.562Z,20.06
2022-07-30T21:29:11.421Z,20.04
2022-07-30T21:32:01.942Z,20.03
2022-07-30T21:34:33.648Z,20.01
2022-07-30T21:37:04.318Z,20.00
2022-07-30T21:39:32.923Z,20.01
2022-07-30T21:42:08.868Z,20.00
2022-07-30T21:44:37.749Z,19.99
2022-07-30T21:47:10.085Z,19.99
2022-07-30T21:49:38.445Z,19.98
2022-07-30T21:52:08.529Z,19.97
2022-07-30T21:54:48.220Z,19.97
2022-07-30T21:57:26.115Z,19.97
2022-07-30T22:00:11.247Z,19.96
2022-07-30T22:02:40.746Z,19.96
2022-07-30T22:08:13.520Z,19.98
2022-07-30T22:10:45.120Z,19.97
2022-07-30T22:13:20.761Z,19.96
2022-07-30T22:15:51.089Z,19.95
2022-07-30T22:18:23.760Z,19.96
2022-07-30T22:20:54.080Z,19.94
2022-07-30T22:23:23.272Z,19.89
2022-07-30T22:25:53.643Z,19.90
2022-07-30T22:28:28.561Z,19.88
2022-07-30T22:30:57.209Z,19.87
2022-07-30T22:33:26.810Z,19.85
2022-07-30T22:35:59.205Z,19.83
2022-07-30T22:38:28.843Z,19.79
2022-07-30T22:40:57.218Z,19.81
2022-07-30T22:43:35.506Z,19.80
2022-07-30T22:46:14.693Z,19.78
2022-07-30T22:48:59.288Z,19.78
2022-07-30T22:52:01.728Z,19.77
2022-07-30T22:54:16.252Z,19.77
2022-07-30T22:56:46.265Z,19.76
2022-07-30T22:59:15.625Z,19.75
2022-07-30T23:01:44.295Z,19.74
2022-07-30T23:04:14.151Z,19.74
2022-07-30T23:06:43.269Z,19.73
2022-07-30T23:09:11.914Z,19.73
2022-07-30T23:11:41.905Z,19.73
2022-07-30T23:12:32.893Z,19.97
2022-07-30T23:14:11.159Z,19.74
2022-07-30T23:16:39.945Z,19.72
2022-07-30T23:19:09.668Z,19.71
2022-07-30T23:21:48.637Z,19.70
2022-07-30T23:24:17.630Z,19.71
2022-07-30T23:26:48.076Z,19.71
2022-07-30T23:29:18.826Z,19.73
2022-07-30T23:31:46.986Z,19.72
2022-07-30T23:34:15.232Z,19.74
2022-07-30T23:36:43.480Z,19.71
2022-07-30T23:39:14.711Z,19.72
2022-07-30T23:41:43.819Z,19.74
2022-07-30T23:44:12.157Z,19.72
2022-07-30T23:46:40.897Z,19.74
2022-07-30T23:49:09.509Z,19.73
2022-07-30T23:51:38.319Z,19.71
2022-07-30T23:54:06.732Z,19.57
2022-07-30T23:56:36.732Z,19.36
2022-07-30T23:59:05.346Z,19.19
